sensor_id;sensor_type;location;lat;lon;timestamp;temperature;humidity
8420;DHT22;4247;48.550;8.822;2024-01-27T00:00:14;3.20;99.90
8420;DHT22;4247;48.550;8.822;2024-01-27T00:02:41;3.10;99.90
8420;DHT22;4247;48.550;8.822;2024-01-27T00:05:08;3.10;99.90
8420;DHT22;4247;48.550;8.822;2024-01-27T00:07:36;3.00;99.90
8420;DHT22;4247;48.550;8.822;2024-01-27T00:10:04;2.90;99.90
8420;DHT22;4247;48.550;8.822;2024-01-27T00:12:30;2.80;99.90
8420;DHT22;4247;48.550;8.822;2024-01-27T00:14:57;2.80;99.90
8420;DHT22;4247;48.550;8.822;2024-01-27T00:17:24;2.80;99.90
8420;DHT22;4247;48.550;8.822;2024-01-27T00:19:51;2.80;99.90
8420;DHT22;4247;48.550;8.822;2024-01-27T00:22:18;2.80;99.90
8420;DHT22;4247;48.550;8.822;2024-01-27T00:24:47;2.70;99.90
8420;DHT22;4247;48.550;8.822;2024-01-27T00:27:14;2.70;99.90
8420;DHT22;4247;48.550;8.822;2024-01-27T00:29:41;2.70;99.90
8420;DHT22;4247;48.550;8.822;2024-01-27T00:32:08;2.70;99.90
8420;DHT22;4247;48.550;8.822;2024-01-27T00:34:34;2.60;99.90
8420;DHT22;4247;48.550;8.822;2024-01-27T00:37:01;2.50;99.90
8420;DHT22;4247;48.550;8.822;2024-01-27T00:39:28;2.50;99.90
8420;DHT22;4247;48.550;8.822;2024-01-27T00:41:56;2.50;99.90
8420;DHT22;4247;48.550;8.822;2024-01-27T00:44:23;2.50;99.90
8420;DHT22;4247;48.550;8.822;2024-01-27T00:46:50;2.40;99.90
8420;DHT22;4247;48.550;8.822;2024-01-27T00:49:17;2.40;99.90
8420;DHT22;4247;48.550;8.822;2024-01-27T00:51:43;2.40;99.90
8420;DHT22;4247;48.550;8.822;2024-01-27T00:54:10;2.40;99.90
8420;DHT22;4247;48.550;8.822;2024-01-27T00:56:37;2.40;99.90
8420;DHT22;4247;48.550;8.822;2024-01-27T00:59:05;2.40;99.90
8420;DHT22;4247;48.550;8.822;2024-01-27T01:01:31;2.40;99.90
8420;DHT22;4247;48.550;8.822;2024-01-27T01:03:58;2.40;99.90
8420;DHT22;4247;48.550;8.822;2024-01-27T01:06:25;2.40;99.90
8420;DHT22;4247;48.550;8.822;2024-01-27T01:08:51;2.40;99.90
8420;DHT22;4247;48.550;8.822;2024-01-27T01:11:18;2.30;99.90
8420;DHT22;4247;48.550;8.822;2024-01-27T01:13:45;2.40;99.90
8420;DHT22;4247;48.550;8.822;2024-01-27T01:16:13;2.40;99.90
8420;DHT22;4247;48.550;8.822;2024-01-27T01:18:39;2.40;99.90
8420;DHT22;4247;48.550;8.822;2024-01-27T01:21:06;2.40;99.90
8420;DHT22;4247;48.550;8.822;2024-01-27T01:23:33;2.30;99.90
8420;DHT22;4247;48.550;8.822;2024-01-27T01:25:59;2.10;99.90
8420;DHT22;4247;48.550;8.822;2024-01-27T01:28:26;2.10;99.90
8420;DHT22;4247;48.550;8.822;2024-01-27T01:30:54;2.00;99.90
8420;DHT22;4247;48.550;8.822;2024-01-27T01:33:22;1.90;99.90
8420;DHT22;4247;48.550;8.822;2024-01-27T01:35:49;1.90;99.90
8420;DHT22;4247;48.550;8.822;2024-01-27T01:38:16;1.90;99.90
8420;DHT22;4247;48.550;8.822;2024-01-27T01:40:42;1.90;99.90
8420;DHT22;4247;48.550;8.822;2024-01-27T01:43:10;1.90;99.90
8420;DHT22;4247;48.550;8.822;2024-01-27T01:45:37;1.90;99.90
8420;DHT22;4247;48.550;8.822;2024-01-27T01:48:05;1.90;99.90
8420;DHT22;4247;48.550;8.822;2024-01-27T01:50:33;1.80;99.90
8420;DHT22;4247;48.550;8.822;2024-01-27T01:53:01;1.80;99.90
8420;DHT22;4247;48.550;8.822;2024-01-27T01:55:28;1.80;99.90
8420;DHT22;4247;48.550;8.822;2024-01-27T01:57:54;1.80;99.90
8420;DHT22;4247;48.550;8.822;2024-01-27T02:00:21;1.80;99.90
8420;DHT22;4247;48.550;8.822;2024-01-27T02:02:48;1.80;99.90
8420;DHT22;4247;48.550;8.822;2024-01-27T02:05:15;1.80;99.90
8420;DHT22;4247;48.550;8.822;2024-01-27T02:07:43;1.90;99.90
8420;DHT22;4247;48.550;8.822;2024-01-27T02:10:13;1.80;99.90
8420;DHT22;4247;48.550;8.822;2024-01-27T02:12:40;1.90;99.90
8420;DHT22;4247;48.550;8.822;2024-01-27T02:15:10;1.80;99.90
8420;DHT22;4247;48.550;8.822;2024-01-27T02:17:37;1.80;99.90
8420;DHT22;4247;48.550;8.822;2024-01-27T02:20:05;1.80;99.90
8420;DHT22;4247;48.550;8.822;2024-01-27T02:22:32;1.80;99.90
8420;DHT22;4247;48.550;8.822;2024-01-27T02:25:00;1.80;99.90
8420;DHT22;4247;48.550;8.822;2024-01-27T02:27:26;1.80;99.90
8420;DHT22;4247;48.550;8.822;2024-01-27T02:29:53;1.80;99.90
8420;DHT22;4247;48.550;8.822;2024-01-27T02:32:20;1.80;99.90
8420;DHT22;4247;48.550;8.822;2024-01-27T02:34:47;1.80;99.90
8420;DHT22;4247;48.550;8.822;2024-01-27T02:37:14;1.80;99.90
8420;DHT22;4247;48.550;8.822;2024-01-27T02:39:41;1.80;99.90
8420;DHT22;4247;48.550;8.822;2024-01-27T02:42:09;1.80;99.90
8420;DHT22;4247;48.550;8.822;2024-01-27T02:44:35;1.80;99.90
8420;DHT22;4247;48.550;8.822;2024-01-27T02:47:02;1.80;99.90
8420;DHT22;4247;48.550;8.822;2024-01-27T02:49:29;1.80;99.90
8420;DHT22;4247;48.550;8.822;2024-01-27T02:51:55;1.80;99.90
8420;DHT22;4247;48.550;8.822;2024-01-27T02:54:22;1.80;99.90
8420;DHT22;4247;48.550;8.822;2024-01-27T02:56:49;1.80;99.90
8420;DHT22;4247;48.550;8.822;2024-01-27T02:59:17;1.80;99.90
8420;DHT22;4247;48.550;8.822;2024-01-27T03:01:43;1.80;99.90
8420;DHT22;4247;48.550;8.822;2024-01-27T03:04:10;1.80;99.90
8420;DHT22;4247;48.550;8.822;2024-01-27T03:06:37;1.80;99.90
8420;DHT22;4247;48.550;8.822;2024-01-27T03:09:04;1.70;99.90
8420;DHT22;4247;48.550;8.822;2024-01-27T03:11:31;1.70;99.90
8420;DHT22;4247;48.550;8.822;2024-01-27T03:13:57;1.60;99.90
8420;DHT22;4247;48.550;8.822;2024-01-27T03:16:25;1.50;99.90
8420;DHT22;4247;48.550;8.822;2024-01-27T03:18:52;1.60;99.90
8420;DHT22;4247;48.550;8.822;2024-01-27T03:21:19;1.60;99.90
8420;DHT22;4247;48.550;8.822;2024-01-27T03:23:45;1.50;99.90
8420;DHT22;4247;48.550;8.822;2024-01-27T03:26:12;1.50;99.90
8420;DHT22;4247;48.550;8.822;2024-01-27T03:28:39;1.50;99.90
8420;DHT22;4247;48.550;8.822;2024-01-27T03:31:06;1.40;99.90
8420;DHT22;4247;48.550;8.822;2024-01-27T03:33:34;1.40;99.90
8420;DHT22;4247;48.550;8.822;2024-01-27T03:36:00;1.30;99.90
8420;DHT22;4247;48.550;8.822;2024-01-27T03:38:27;1.30;99.90
8420;DHT22;4247;48.550;8.822;2024-01-27T03:40:54;1.30;99.90
8420;DHT22;4247;48.550;8.822;2024-01-27T03:43:20;1.30;99.90
8420;DHT22;4247;48.550;8.822;2024-01-27T03:45:47;1.20;99.90
8420;DHT22;4247;48.550;8.822;2024-01-27T03:48:13;1.20;99.90
8420;DHT22;4247;48.550;8.822;2024-01-27T03:50:41;1.20;99.90
8420;DHT22;4247;48.550;8.822;2024-01-27T03:53:08;1.20;99.90
8420;DHT22;4247;48.550;8.822;2024-01-27T03:55:35;1.20;99.90
8420;DHT22;4247;48.550;8.822;2024-01-27T03:58:01;1.10;99.90
8420;DHT22;4247;48.550;8.822;2024-01-27T04:00:28;1.10;99.90
8420;DHT22;4247;48.550;8.822;2024-01-27T04:02:58;1.00;99.90
8420;DHT22;4247;48.550;8.822;2024-01-27T04:05:25;1.00;99.90
8420;DHT22;4247;48.550;8.822;2024-01-27T04:07:53;1.00;99.90
8420;DHT22;4247;48.550;8.822;2024-01-27T04:10:21;1.00;99.90
8420;DHT22;4247;48.550;8.822;2024-01-27T04:12:47;1.10;99.90
8420;DHT22;4247;48.550;8.822;2024-01-27T04:15:14;1.00;99.90
8420;DHT22;4247;48.550;8.822;2024-01-27T04:17:41;1.00;99.90
8420;DHT22;4247;48.550;8.822;2024-01-27T04:20:09;1.00;99.90
8420;DHT22;4247;48.550;8.822;2024-01-27T04:22:37;1.00;99.90
8420;DHT22;4247;48.550;8.822;2024-01-27T04:25:06;0.90;99.90
8420;DHT22;4247;48.550;8.822;2024-01-27T04:27:36;0.90;99.90
8420;DHT22;4247;48.550;8.822;2024-01-27T04:30:05;0.90;99.90
8420;DHT22;4247;48.550;8.822;2024-01-27T04:32:31;1.00;99.90
8420;DHT22;4247;48.550;8.822;2024-01-27T04:34:57;1.00;99.90
8420;DHT22;4247;48.550;8.822;2024-01-27T04:37:24;1.00;99.90
8420;DHT22;4247;48.550;8.822;2024-01-27T04:39:51;0.90;99.90
8420;DHT22;4247;48.550;8.822;2024-01-27T04:42:19;1.00;99.90
8420;DHT22;4247;48.550;8.822;2024-01-27T04:44:46;0.90;99.90
8420;DHT22;4247;48.550;8.822;2024-01-27T04:47:12;0.80;99.90
8420;DHT22;4247;48.550;8.822;2024-01-27T04:49:39;0.90;99.90
8420;DHT22;4247;48.550;8.822;2024-01-27T04:52:06;0.80;99.90
8420;DHT22;4247;48.550;8.822;2024-01-27T04:54:33;0.70;99.90
8420;DHT22;4247;48.550;8.822;2024-01-27T04:57:00;0.80;99.90
8420;DHT22;4247;48.550;8.822;2024-01-27T04:59:28;0.80;99.90
8420;DHT22;4247;48.550;8.822;2024-01-27T05:01:54;0.70;99.90
8420;DHT22;4247;48.550;8.822;2024-01-27T05:04:21;0.70;99.90
8420;DHT22;4247;48.550;8.822;2024-01-27T05:06:52;0.70;99.90
8420;DHT22;4247;48.550;8.822;2024-01-27T05:09:18;0.70;99.90
8420;DHT22;4247;48.550;8.822;2024-01-27T05:11:45;0.70;99.90
8420;DHT22;4247;48.550;8.822;2024-01-27T05:14:13;0.70;99.90
8420;DHT22;4247;48.550;8.822;2024-01-27T05:16:41;0.70;99.90
8420;DHT22;4247;48.550;8.822;2024-01-27T05:19:08;0.70;99.90
8420;DHT22;4247;48.550;8.822;2024-01-27T05:21:34;0.70;99.90
8420;DHT22;4247;48.550;8.822;2024-01-27T05:24:01;0.70;99.90
8420;DHT22;4247;48.550;8.822;2024-01-27T05:26:28;0.80;99.90
8420;DHT22;4247;48.550;8.822;2024-01-27T05:28:54;0.70;99.90
8420;DHT22;4247;48.550;8.822;2024-01-27T05:31:21;0.80;99.90
8420;DHT22;4247;48.550;8.822;2024-01-27T05:33:49;0.70;99.90
8420;DHT22;4247;48.550;8.822;2024-01-27T05:36:16;0.80;99.90
8420;DHT22;4247;48.550;8.822;2024-01-27T05:38:43;0.70;99.90
8420;DHT22;4247;48.550;8.822;2024-01-27T05:41:09;0.70;99.90
8420;DHT22;4247;48.550;8.822;2024-01-27T05:43:36;0.60;99.90
8420;DHT22;4247;48.550;8.822;2024-01-27T05:46:03;0.60;99.90
8420;DHT22;4247;48.550;8.822;2024-01-27T05:48:30;0.60;99.90
8420;DHT22;4247;48.550;8.822;2024-01-27T05:51:01;0.50;99.90
8420;DHT22;4247;48.550;8.822;2024-01-27T05:53:28;0.50;99.90
8420;DHT22;4247;48.550;8.822;2024-01-27T05:55:55;0.50;99.90
8420;DHT22;4247;48.550;8.822;2024-01-27T05:58:22;0.50;99.90
8420;DHT22;4247;48.550;8.822;2024-01-27T06:00:49;0.50;99.90
8420;DHT22;4247;48.550;8.822;2024-01-27T06:03:16;0.50;99.90
8420;DHT22;4247;48.550;8.822;2024-01-27T06:05:43;0.40;99.90
8420;DHT22;4247;48.550;8.822;2024-01-27T06:08:11;0.40;99.90
8420;DHT22;4247;48.550;8.822;2024-01-27T06:10:38;0.40;99.90
8420;DHT22;4247;48.550;8.822;2024-01-27T06:13:05;0.30;99.90
8420;DHT22;4247;48.550;8.822;2024-01-27T06:15:31;0.30;99.90
8420;DHT22;4247;48.550;8.822;2024-01-27T06:17:58;0.30;99.90
8420;DHT22;4247;48.550;8.822;2024-01-27T06:20:25;0.30;99.90
8420;DHT22;4247;48.550;8.822;2024-01-27T06:22:52;0.30;99.90
8420;DHT22;4247;48.550;8.822;2024-01-27T06:25:20;0.30;99.90
8420;DHT22;4247;48.550;8.822;2024-01-27T06:27:47;0.30;99.90
8420;DHT22;4247;48.550;8.822;2024-01-27T06:30:14;0.30;99.90
8420;DHT22;4247;48.550;8.822;2024-01-27T06:32:41;0.30;99.90
8420;DHT22;4247;48.550;8.822;2024-01-27T06:35:08;0.20;99.90
8420;DHT22;4247;48.550;8.822;2024-01-27T06:37:35;0.20;99.90
8420;DHT22;4247;48.550;8.822;2024-01-27T06:40:02;0.20;99.90
8420;DHT22;4247;48.550;8.822;2024-01-27T06:42:30;0.20;99.90
8420;DHT22;4247;48.550;8.822;2024-01-27T06:44:57;0.20;99.90
8420;DHT22;4247;48.550;8.822;2024-01-27T06:47:24;0.20;99.90
8420;DHT22;4247;48.550;8.822;2024-01-27T06:49:51;0.20;99.90
8420;DHT22;4247;48.550;8.822;2024-01-27T06:52:18;0.30;99.90
8420;DHT22;4247;48.550;8.822;2024-01-27T06:54:44;0.30;99.90
8420;DHT22;4247;48.550;8.822;2024-01-27T06:57:18;0.20;99.90
8420;DHT22;4247;48.550;8.822;2024-01-27T06:59:48;0.30;99.90
8420;DHT22;4247;48.550;8.822;2024-01-27T07:02:18;0.30;99.90
8420;DHT22;4247;48.550;8.822;2024-01-27T07:04:45;0.30;99.90
8420;DHT22;4247;48.550;8.822;2024-01-27T07:07:12;0.30;99.90
8420;DHT22;4247;48.550;8.822;2024-01-27T07:09:38;0.30;99.90
8420;DHT22;4247;48.550;8.822;2024-01-27T07:12:05;0.30;99.90
8420;DHT22;4247;48.550;8.822;2024-01-27T07:14:33;0.30;99.90
8420;DHT22;4247;48.550;8.822;2024-01-27T07:17:02;0.30;99.90
8420;DHT22;4247;48.550;8.822;2024-01-27T07:19:29;0.30;99.90
8420;DHT22;4247;48.550;8.822;2024-01-27T07:21:56;0.30;99.90
8420;DHT22;4247;48.550;8.822;2024-01-27T07:24:22;0.40;99.90
8420;DHT22;4247;48.550;8.822;2024-01-27T07:26:49;0.40;99.90
8420;DHT22;4247;48.550;8.822;2024-01-27T07:29:16;0.40;99.90
8420;DHT22;4247;48.550;8.822;2024-01-27T07:31:42;0.40;99.90
8420;DHT22;4247;48.550;8.822;2024-01-27T07:34:10;0.40;99.90
8420;DHT22;4247;48.550;8.822;2024-01-27T07:36:37;0.30;99.90
8420;DHT22;4247;48.550;8.822;2024-01-27T07:39:04;0.30;99.90
8420;DHT22;4247;48.550;8.822;2024-01-27T07:41:31;0.20;99.90
8420;DHT22;4247;48.550;8.822;2024-01-27T07:44:07;0.20;99.90
8420;DHT22;4247;48.550;8.822;2024-01-27T07:46:34;0.20;99.90
8420;DHT22;4247;48.550;8.822;2024-01-27T07:49:01;0.20;99.90
8420;DHT22;4247;48.550;8.822;2024-01-27T07:51:30;0.20;99.90
8420;DHT22;4247;48.550;8.822;2024-01-27T07:53:57;0.30;99.90
8420;DHT22;4247;48.550;8.822;2024-01-27T07:56:23;0.30;99.90
8420;DHT22;4247;48.550;8.822;2024-01-27T07:58:50;0.30;99.90
8420;DHT22;4247;48.550;8.822;2024-01-27T08:01:18;0.30;99.90
8420;DHT22;4247;48.550;8.822;2024-01-27T08:03:45;0.30;99.90
8420;DHT22;4247;48.550;8.822;2024-01-27T08:06:15;0.30;99.90
8420;DHT22;4247;48.550;8.822;2024-01-27T08:08:44;0.30;99.90
8420;DHT22;4247;48.550;8.822;2024-01-27T08:11:11;0.30;99.90
8420;DHT22;4247;48.550;8.822;2024-01-27T08:13:37;0.30;99.90
8420;DHT22;4247;48.550;8.822;2024-01-27T08:16:04;0.30;99.90
8420;DHT22;4247;48.550;8.822;2024-01-27T08:18:31;0.30;99.90
8420;DHT22;4247;48.550;8.822;2024-01-27T08:20:58;0.20;99.90
8420;DHT22;4247;48.550;8.822;2024-01-27T08:23:25;0.20;99.90
8420;DHT22;4247;48.550;8.822;2024-01-27T08:25:53;0.20;99.90
8420;DHT22;4247;48.550;8.822;2024-01-27T08:28:22;0.20;99.90
8420;DHT22;4247;48.550;8.822;2024-01-27T08:30:49;0.20;99.90
8420;DHT22;4247;48.550;8.822;2024-01-27T08:33:16;0.20;99.90
8420;DHT22;4247;48.550;8.822;2024-01-27T08:35:42;0.30;99.90
8420;DHT22;4247;48.550;8.822;2024-01-27T08:38:09;0.30;99.90
8420;DHT22;4247;48.550;8.822;2024-01-27T08:40:36;0.30;99.90
8420;DHT22;4247;48.550;8.822;2024-01-27T08:43:04;0.40;99.90
8420;DHT22;4247;48.550;8.822;2024-01-27T08:45:31;0.40;99.90
8420;DHT22;4247;48.550;8.822;2024-01-27T08:47:58;0.50;99.90
8420;DHT22;4247;48.550;8.822;2024-01-27T08:50:25;0.50;99.90
8420;DHT22;4247;48.550;8.822;2024-01-27T08:52:51;0.60;99.90
8420;DHT22;4247;48.550;8.822;2024-01-27T08:55:18;0.70;99.90
8420;DHT22;4247;48.550;8.822;2024-01-27T08:57:45;0.60;99.90
8420;DHT22;4247;48.550;8.822;2024-01-27T09:00:14;0.70;99.90
8420;DHT22;4247;48.550;8.822;2024-01-27T09:02:42;0.80;99.90
8420;DHT22;4247;48.550;8.822;2024-01-27T09:05:08;0.90;99.90
8420;DHT22;4247;48.550;8.822;2024-01-27T09:07:36;1.00;99.90
8420;DHT22;4247;48.550;8.822;2024-01-27T09:10:03;1.10;99.90
8420;DHT22;4247;48.550;8.822;2024-01-27T09:12:30;1.20;99.90
8420;DHT22;4247;48.550;8.822;2024-01-27T09:14:56;1.30;99.90
8420;DHT22;4247;48.550;8.822;2024-01-27T09:17:24;1.40;99.90
8420;DHT22;4247;48.550;8.822;2024-01-27T09:19:51;1.50;99.90
8420;DHT22;4247;48.550;8.822;2024-01-27T09:22:18;1.50;99.90
8420;DHT22;4247;48.550;8.822;2024-01-27T09:24:45;1.60;99.90
8420;DHT22;4247;48.550;8.822;2024-01-27T09:27:11;1.70;99.90
8420;DHT22;4247;48.550;8.822;2024-01-27T09:29:38;1.70;99.90
8420;DHT22;4247;48.550;8.822;2024-01-27T09:32:05;1.80;99.90
8420;DHT22;4247;48.550;8.822;2024-01-27T09:34:34;1.90;99.90
8420;DHT22;4247;48.550;8.822;2024-01-27T09:37:00;1.90;99.90
8420;DHT22;4247;48.550;8.822;2024-01-27T09:39:27;1.90;99.90
8420;DHT22;4247;48.550;8.822;2024-01-27T09:41:54;2.00;99.90
8420;DHT22;4247;48.550;8.822;2024-01-27T09:44:21;2.00;99.90
8420;DHT22;4247;48.550;8.822;2024-01-27T09:46:48;2.10;99.90
8420;DHT22;4247;48.550;8.822;2024-01-27T09:49:15;2.10;99.90
8420;DHT22;4247;48.550;8.822;2024-01-27T09:51:43;2.10;99.90
8420;DHT22;4247;48.550;8.822;2024-01-27T09:54:10;2.20;99.90
8420;DHT22;4247;48.550;8.822;2024-01-27T09:56:37;2.20;99.90
8420;DHT22;4247;48.550;8.822;2024-01-27T09:59:05;2.30;99.90
8420;DHT22;4247;48.550;8.822;2024-01-27T10:01:33;2.30;99.90
8420;DHT22;4247;48.550;8.822;2024-01-27T10:04:01;2.40;99.90
8420;DHT22;4247;48.550;8.822;2024-01-27T10:06:28;2.40;99.90
8420;DHT22;4247;48.550;8.822;2024-01-27T10:08:56;2.40;99.90
8420;DHT22;4247;48.550;8.822;2024-01-27T10:11:23;2.40;99.90
8420;DHT22;4247;48.550;8.822;2024-01-27T10:13:56;2.40;99.90
8420;DHT22;4247;48.550;8.822;2024-01-27T10:16:25;2.40;99.90
8420;DHT22;4247;48.550;8.822;2024-01-27T10:18:59;2.30;99.90
8420;DHT22;4247;48.550;8.822;2024-01-27T10:21:27;2.30;99.90
8420;DHT22;4247;48.550;8.822;2024-01-27T10:23:53;2.30;99.90
8420;DHT22;4247;48.550;8.822;2024-01-27T10:26:21;2.30;99.90
8420;DHT22;4247;48.550;8.822;2024-01-27T10:28:53;2.30;99.90
8420;DHT22;4247;48.550;8.822;2024-01-27T10:31:20;2.30;99.90
8420;DHT22;4247;48.550;8.822;2024-01-27T10:33:51;2.40;99.90
8420;DHT22;4247;48.550;8.822;2024-01-27T10:36:18;2.40;99.90
8420;DHT22;4247;48.550;8.822;2024-01-27T10:38:45;2.30;99.90
8420;DHT22;4247;48.550;8.822;2024-01-27T10:41:17;2.30;99.90
8420;DHT22;4247;48.550;8.822;2024-01-27T10:43:50;2.30;99.90
8420;DHT22;4247;48.550;8.822;2024-01-27T10:46:19;2.40;99.90
8420;DHT22;4247;48.550;8.822;2024-01-27T10:48:49;2.50;99.90
8420;DHT22;4247;48.550;8.822;2024-01-27T10:51:21;2.60;99.90
8420;DHT22;4247;48.550;8.822;2024-01-27T10:53:49;2.70;99.90
8420;DHT22;4247;48.550;8.822;2024-01-27T10:56:18;2.70;99.90
8420;DHT22;4247;48.550;8.822;2024-01-27T10:58:46;2.80;99.90
8420;DHT22;4247;48.550;8.822;2024-01-27T11:01:16;2.70;99.90
8420;DHT22;4247;48.550;8.822;2024-01-27T11:03:48;2.70;99.90
8420;DHT22;4247;48.550;8.822;2024-01-27T11:06:17;2.80;99.90
8420;DHT22;4247;48.550;8.822;2024-01-27T11:08:45;2.80;99.90
8420;DHT22;4247;48.550;8.822;2024-01-27T11:11:13;2.80;99.90
8420;DHT22;4247;48.550;8.822;2024-01-27T11:13:40;2.90;99.90
8420;DHT22;4247;48.550;8.822;2024-01-27T11:16:16;2.90;99.90
8420;DHT22;4247;48.550;8.822;2024-01-27T11:18:44;3.00;99.90
8420;DHT22;4247;48.550;8.822;2024-01-27T11:21:13;3.00;99.90
8420;DHT22;4247;48.550;8.822;2024-01-27T11:23:40;3.00;99.90
8420;DHT22;4247;48.550;8.822;2024-01-27T11:26:08;3.00;99.90
8420;DHT22;4247;48.550;8.822;2024-01-27T11:28:36;3.00;99.90
8420;DHT22;4247;48.550;8.822;2024-01-27T11:31:03;3.00;99.90
8420;DHT22;4247;48.550;8.822;2024-01-27T11:33:31;3.00;99.90
8420;DHT22;4247;48.550;8.822;2024-01-27T11:36:02;3.00;99.90
8420;DHT22;4247;48.550;8.822;2024-01-27T11:38:30;3.10;99.90
8420;DHT22;4247;48.550;8.822;2024-01-27T11:40:57;3.00;99.90
8420;DHT22;4247;48.550;8.822;2024-01-27T11:43:24;3.00;99.90
8420;DHT22;4247;48.550;8.822;2024-01-27T11:45:57;3.00;99.90
8420;DHT22;4247;48.550;8.822;2024-01-27T11:48:24;3.00;99.90
8420;DHT22;4247;48.550;8.822;2024-01-27T11:51:03;3.00;99.90
8420;DHT22;4247;48.550;8.822;2024-01-27T11:53:31;3.00;99.90
8420;DHT22;4247;48.550;8.822;2024-01-27T11:55:57;3.00;99.90
8420;DHT22;4247;48.550;8.822;2024-01-27T11:58:24;3.00;99.90
8420;DHT22;4247;48.550;8.822;2024-01-27T12:00:51;3.00;99.90
8420;DHT22;4247;48.550;8.822;2024-01-27T12:03:18;3.00;99.90
8420;DHT22;4247;48.550;8.822;2024-01-27T12:05:45;3.00;99.90
8420;DHT22;4247;48.550;8.822;2024-01-27T12:08:13;3.00;99.90
8420;DHT22;4247;48.550;8.822;2024-01-27T12:10:40;2.90;99.90
8420;DHT22;4247;48.550;8.822;2024-01-27T12:13:07;3.00;99.90
8420;DHT22;4247;48.550;8.822;2024-01-27T12:15:34;3.00;99.90
8420;DHT22;4247;48.550;8.822;2024-01-27T12:18:02;3.10;99.90
8420;DHT22;4247;48.550;8.822;2024-01-27T12:20:30;3.10;99.90
8420;DHT22;4247;48.550;8.822;2024-01-27T12:23:02;3.20;99.90
8420;DHT22;4247;48.550;8.822;2024-01-27T12:25:30;3.20;99.90
8420;DHT22;4247;48.550;8.822;2024-01-27T12:28:01;3.20;99.90
8420;DHT22;4247;48.550;8.822;2024-01-27T12:30:27;3.20;99.90
8420;DHT22;4247;48.550;8.822;2024-01-27T12:32:54;3.30;99.90
8420;DHT22;4247;48.550;8.822;2024-01-27T12:35:21;3.30;99.90
8420;DHT22;4247;48.550;8.822;2024-01-27T12:37:49;3.30;99.90
8420;DHT22;4247;48.550;8.822;2024-01-27T12:40:20;3.40;99.90
8420;DHT22;4247;48.550;8.822;2024-01-27T12:42:48;3.40;99.90
8420;DHT22;4247;48.550;8.822;2024-01-27T12:45:15;3.50;99.90
8420;DHT22;4247;48.550;8.822;2024-01-27T12:47:42;3.50;99.90
8420;DHT22;4247;48.550;8.822;2024-01-27T12:50:09;3.60;99.90
8420;DHT22;4247;48.550;8.822;2024-01-27T12:52:36;3.60;99.90
8420;DHT22;4247;48.550;8.822;2024-01-27T12:55:04;3.60;99.90
8420;DHT22;4247;48.550;8.822;2024-01-27T12:57:30;3.60;99.90
8420;DHT22;4247;48.550;8.822;2024-01-27T12:59:59;3.70;99.90
8420;DHT22;4247;48.550;8.822;2024-01-27T13:02:25;3.70;99.90
8420;DHT22;4247;48.550;8.822;2024-01-27T13:04:52;3.70;99.90
8420;DHT22;4247;48.550;8.822;2024-01-27T13:07:19;3.70;99.90
8420;DHT22;4247;48.550;8.822;2024-01-27T13:09:45;3.70;99.90
8420;DHT22;4247;48.550;8.822;2024-01-27T13:12:12;3.80;99.90
8420;DHT22;4247;48.550;8.822;2024-01-27T13:14:39;3.80;99.90
8420;DHT22;4247;48.550;8.822;2024-01-27T13:17:07;3.80;99.90
8420;DHT22;4247;48.550;8.822;2024-01-27T13:19:34;3.80;99.90
8420;DHT22;4247;48.550;8.822;2024-01-27T13:22:00;3.80;99.90
8420;DHT22;4247;48.550;8.822;2024-01-27T13:24:28;3.80;99.90
8420;DHT22;4247;48.550;8.822;2024-01-27T13:26:55;3.80;99.90
8420;DHT22;4247;48.550;8.822;2024-01-27T13:29:23;3.80;99.90
8420;DHT22;4247;48.550;8.822;2024-01-27T13:31:49;3.90;99.90
8420;DHT22;4247;48.550;8.822;2024-01-27T13:34:17;3.90;99.90
8420;DHT22;4247;48.550;8.822;2024-01-27T13:36:44;3.90;99.90
8420;DHT22;4247;48.550;8.822;2024-01-27T13:39:11;3.90;99.90
8420;DHT22;4247;48.550;8.822;2024-01-27T13:41:37;4.00;99.90
8420;DHT22;4247;48.550;8.822;2024-01-27T13:44:04;4.00;99.90
8420;DHT22;4247;48.550;8.822;2024-01-27T13:46:31;4.00;99.90
8420;DHT22;4247;48.550;8.822;2024-01-27T13:48:58;4.00;99.90
8420;DHT22;4247;48.550;8.822;2024-01-27T13:51:26;4.00;99.90
8420;DHT22;4247;48.550;8.822;2024-01-27T13:53:52;4.00;99.90
8420;DHT22;4247;48.550;8.822;2024-01-27T13:56:19;4.00;99.90
8420;DHT22;4247;48.550;8.822;2024-01-27T13:58:46;4.00;99.90
8420;DHT22;4247;48.550;8.822;2024-01-27T14:01:13;4.00;99.90
8420;DHT22;4247;48.550;8.822;2024-01-27T14:03:39;4.00;99.90
8420;DHT22;4247;48.550;8.822;2024-01-27T14:06:06;4.00;99.90
8420;DHT22;4247;48.550;8.822;2024-01-27T14:08:38;4.00;99.90
8420;DHT22;4247;48.550;8.822;2024-01-27T14:11:05;4.00;99.90
8420;DHT22;4247;48.550;8.822;2024-01-27T14:13:32;4.00;99.90
8420;DHT22;4247;48.550;8.822;2024-01-27T14:15:59;4.10;99.90
8420;DHT22;4247;48.550;8.822;2024-01-27T14:18:26;4.10;99.90
8420;DHT22;4247;48.550;8.822;2024-01-27T14:20:53;4.10;99.90
8420;DHT22;4247;48.550;8.822;2024-01-27T14:23:20;4.20;99.90
8420;DHT22;4247;48.550;8.822;2024-01-27T14:25:48;4.20;99.90
8420;DHT22;4247;48.550;8.822;2024-01-27T14:28:15;4.20;99.90
8420;DHT22;4247;48.550;8.822;2024-01-27T14:30:42;4.30;99.90
8420;DHT22;4247;48.550;8.822;2024-01-27T14:33:09;4.30;99.90
8420;DHT22;4247;48.550;8.822;2024-01-27T14:35:36;4.30;99.90
8420;DHT22;4247;48.550;8.822;2024-01-27T14:38:03;4.30;99.90
8420;DHT22;4247;48.550;8.822;2024-01-27T14:40:30;4.30;99.90
8420;DHT22;4247;48.550;8.822;2024-01-27T14:42:59;4.30;99.90
8420;DHT22;4247;48.550;8.822;2024-01-27T14:45:25;4.30;99.90
8420;DHT22;4247;48.550;8.822;2024-01-27T14:47:52;4.30;99.90
8420;DHT22;4247;48.550;8.822;2024-01-27T14:50:19;4.30;99.90
8420;DHT22;4247;48.550;8.822;2024-01-27T14:52:46;4.30;99.90
8420;DHT22;4247;48.550;8.822;2024-01-27T14:55:13;4.30;99.90
8420;DHT22;4247;48.550;8.822;2024-01-27T14:57:41;4.30;99.90
8420;DHT22;4247;48.550;8.822;2024-01-27T15:00:09;4.30;99.90
8420;DHT22;4247;48.550;8.822;2024-01-27T15:02:36;4.20;99.90
8420;DHT22;4247;48.550;8.822;2024-01-27T15:05:03;4.20;99.90
8420;DHT22;4247;48.550;8.822;2024-01-27T15:07:31;4.20;99.90
8420;DHT22;4247;48.550;8.822;2024-01-27T15:09:58;4.20;99.90
8420;DHT22;4247;48.550;8.822;2024-01-27T15:12:24;4.20;99.90
8420;DHT22;4247;48.550;8.822;2024-01-27T15:14:51;4.20;99.90
8420;DHT22;4247;48.550;8.822;2024-01-27T15:17:19;4.20;99.90
8420;DHT22;4247;48.550;8.822;2024-01-27T15:19:47;4.20;99.90
8420;DHT22;4247;48.550;8.822;2024-01-27T15:22:14;4.10;99.90
8420;DHT22;4247;48.550;8.822;2024-01-27T15:24:40;4.10;99.90
8420;DHT22;4247;48.550;8.822;2024-01-27T15:27:07;4.10;99.90
8420;DHT22;4247;48.550;8.822;2024-01-27T15:29:34;4.10;99.90
8420;DHT22;4247;48.550;8.822;2024-01-27T15:32:00;4.10;99.90
8420;DHT22;4247;48.550;8.822;2024-01-27T15:34:28;4.00;99.90
8420;DHT22;4247;48.550;8.822;2024-01-27T15:36:55;4.00;99.90
8420;DHT22;4247;48.550;8.822;2024-01-27T15:39:23;4.00;99.90
8420;DHT22;4247;48.550;8.822;2024-01-27T15:41:50;4.00;99.90
8420;DHT22;4247;48.550;8.822;2024-01-27T15:44:16;3.90;99.90
8420;DHT22;4247;48.550;8.822;2024-01-27T15:46:43;3.90;99.90
8420;DHT22;4247;48.550;8.822;2024-01-27T15:49:10;3.90;99.90
8420;DHT22;4247;48.550;8.822;2024-01-27T15:51:38;3.90;99.90
8420;DHT22;4247;48.550;8.822;2024-01-27T15:54:04;3.80;99.90
8420;DHT22;4247;48.550;8.822;2024-01-27T15:56:31;3.80;99.90
8420;DHT22;4247;48.550;8.822;2024-01-27T15:58:58;3.70;99.90
8420;DHT22;4247;48.550;8.822;2024-01-27T16:01:24;3.70;99.90
8420;DHT22;4247;48.550;8.822;2024-01-27T16:03:51;3.70;99.90
8420;DHT22;4247;48.550;8.822;2024-01-27T16:06:18;3.70;99.90
8420;DHT22;4247;48.550;8.822;2024-01-27T16:08:47;3.60;99.90
8420;DHT22;4247;48.550;8.822;2024-01-27T16:11:14;3.60;99.90
8420;DHT22;4247;48.550;8.822;2024-01-27T16:13:40;3.50;99.90
8420;DHT22;4247;48.550;8.822;2024-01-27T16:16:07;3.40;99.90